sensor_id;sensor_type;location;lat;lon;timestamp;P1;durP1;ratioP1;P2;durP2;ratioP2
68714;SDS011;55692;53.356;10.030;2023-06-22T00:01:27;9.65;;;5.18;;
68714;SDS011;55692;53.356;10.030;2023-06-22T00:03:53;5.68;;;4.63;;
68714;SDS011;55692;53.356;10.030;2023-06-22T00:06:19;12.98;;;4.70;;
68714;SDS011;55692;53.356;10.030;2023-06-22T00:08:45;10.30;;;4.75;;
68714;SDS011;55692;53.356;10.030;2023-06-22T00:11:11;6.32;;;4.72;;
68714;SDS011;55692;53.356;10.030;2023-06-22T00:13:37;9.73;;;4.88;;
68714;SDS011;55692;53.356;10.030;2023-06-22T00:16:03;7.40;;;5.10;;
68714;SDS011;55692;53.356;10.030;2023-06-22T00:18:29;6.30;;;4.82;;
68714;SDS011;55692;53.356;10.030;2023-06-22T00:20:57;7.38;;;4.85;;
68714;SDS011;55692;53.356;10.030;2023-06-22T00:23:23;6.40;;;4.63;;
68714;SDS011;55692;53.356;10.030;2023-06-22T00:25:49;5.80;;;4.30;;
68714;SDS011;55692;53.356;10.030;2023-06-22T00:28:15;6.25;;;4.55;;
68714;SDS011;55692;53.356;10.030;2023-06-22T00:30:41;7.95;;;4.82;;
68714;SDS011;55692;53.356;10.030;2023-06-22T00:33:07;7.53;;;4.88;;
68714;SDS011;55692;53.356;10.030;2023-06-22T00:35:33;8.35;;;5.43;;
68714;SDS011;55692;53.356;10.030;2023-06-22T00:38:00;6.88;;;4.55;;
68714;SDS011;55692;53.356;10.030;2023-06-22T00:40:27;5.85;;;4.63;;
68714;SDS011;55692;53.356;10.030;2023-06-22T00:42:54;5.72;;;4.22;;
68714;SDS011;55692;53.356;10.030;2023-06-22T00:45:21;6.40;;;4.68;;
68714;SDS011;55692;53.356;10.030;2023-06-22T00:47:48;5.03;;;4.10;;
68714;SDS011;55692;53.356;10.030;2023-06-22T00:50:17;7.25;;;5.10;;
68714;SDS011;55692;53.356;10.030;2023-06-22T00:52:45;7.35;;;4.40;;
68714;SDS011;55692;53.356;10.030;2023-06-22T00:55:12;6.25;;;4.88;;
68714;SDS011;55692;53.356;10.030;2023-06-22T00:57:39;7.93;;;5.70;;
68714;SDS011;55692;53.356;10.030;2023-06-22T01:00:05;8.82;;;6.22;;
68714;SDS011;55692;53.356;10.030;2023-06-22T01:02:33;8.77;;;6.32;;
68714;SDS011;55692;53.356;10.030;2023-06-22T01:04:59;9.18;;;6.93;;
68714;SDS011;55692;53.356;10.030;2023-06-22T01:07:32;9.60;;;7.10;;
68714;SDS011;55692;53.356;10.030;2023-06-22T01:10:14;8.07;;;5.95;;
68714;SDS011;55692;53.356;10.030;2023-06-22T01:12:42;7.97;;;5.78;;
68714;SDS011;55692;53.356;10.030;2023-06-22T01:17:40;8.00;;;5.68;;
68714;SDS011;55692;53.356;10.030;2023-06-22T01:20:06;7.82;;;5.97;;
68714;SDS011;55692;53.356;10.030;2023-06-22T01:25:26;10.35;;;6.43;;
68714;SDS011;55692;53.356;10.030;2023-06-22T01:30:25;7.78;;;6.03;;
68714;SDS011;55692;53.356;10.030;2023-06-22T01:32:53;9.00;;;6.28;;
68714;SDS011;55692;53.356;10.030;2023-06-22T01:35:20;9.27;;;6.60;;
68714;SDS011;55692;53.356;10.030;2023-06-22T01:37:46;7.50;;;6.28;;
68714;SDS011;55692;53.356;10.030;2023-06-22T01:40:12;6.65;;;4.95;;
68714;SDS011;55692;53.356;10.030;2023-06-22T01:42:39;7.57;;;4.78;;
68714;SDS011;55692;53.356;10.030;2023-06-22T01:45:05;6.13;;;5.00;;
68714;SDS011;55692;53.356;10.030;2023-06-22T01:47:32;7.43;;;5.53;;
68714;SDS011;55692;53.356;10.030;2023-06-22T01:49:58;7.18;;;5.38;;
68714;SDS011;55692;53.356;10.030;2023-06-22T01:52:24;9.00;;;5.55;;
68714;SDS011;55692;53.356;10.030;2023-06-22T01:54:50;10.15;;;5.68;;
68714;SDS011;55692;53.356;10.030;2023-06-22T01:57:16;8.90;;;5.43;;
68714;SDS011;55692;53.356;10.030;2023-06-22T01:59:49;9.35;;;5.30;;
68714;SDS011;55692;53.356;10.030;2023-06-22T02:02:19;9.00;;;5.40;;
68714;SDS011;55692;53.356;10.030;2023-06-22T02:04:52;7.82;;;6.55;;
68714;SDS011;55692;53.356;10.030;2023-06-22T02:07:20;7.72;;;5.32;;
68714;SDS011;55692;53.356;10.030;2023-06-22T02:09:49;8.40;;;6.07;;
68714;SDS011;55692;53.356;10.030;2023-06-22T02:12:18;10.40;;;6.18;;
68714;SDS011;55692;53.356;10.030;2023-06-22T02:14:44;7.03;;;5.32;;
68714;SDS011;55692;53.356;10.030;2023-06-22T02:17:11;4.95;;;4.25;;
68714;SDS011;55692;53.356;10.030;2023-06-22T02:19:38;5.93;;;4.65;;
68714;SDS011;55692;53.356;10.030;2023-06-22T02:22:04;6.40;;;5.45;;
68714;SDS011;55692;53.356;10.030;2023-06-22T02:24:30;12.15;;;7.43;;
68714;SDS011;55692;53.356;10.030;2023-06-22T02:26:58;15.23;;;8.20;;
68714;SDS011;55692;53.356;10.030;2023-06-22T02:29:24;11.93;;;8.15;;
68714;SDS011;55692;53.356;10.030;2023-06-22T02:31:51;8.90;;;6.68;;
68714;SDS011;55692;53.356;10.030;2023-06-22T02:34:17;9.02;;;6.47;;
68714;SDS011;55692;53.356;10.030;2023-06-22T02:36:46;8.85;;;6.47;;
68714;SDS011;55692;53.356;10.030;2023-06-22T02:39:19;9.17;;;6.17;;
68714;SDS011;55692;53.356;10.030;2023-06-22T02:41:45;7.25;;;6.10;;
68714;SDS011;55692;53.356;10.030;2023-06-22T02:44:11;12.23;;;7.25;;
68714;SDS011;55692;53.356;10.030;2023-06-22T02:46:37;11.63;;;6.22;;
68714;SDS011;55692;53.356;10.030;2023-06-22T02:49:03;10.02;;;6.82;;
68714;SDS011;55692;53.356;10.030;2023-06-22T02:51:30;5.80;;;4.05;;
68714;SDS011;55692;53.356;10.030;2023-06-22T02:53:56;4.65;;;3.40;;
68714;SDS011;55692;53.356;10.030;2023-06-22T02:56:22;4.85;;;3.67;;
68714;SDS011;55692;53.356;10.030;2023-06-22T02:58:50;6.30;;;4.30;;
68714;SDS011;55692;53.356;10.030;2023-06-22T03:01:16;4.70;;;3.97;;
68714;SDS011;55692;53.356;10.030;2023-06-22T03:03:49;6.93;;;5.13;;
68714;SDS011;55692;53.356;10.030;2023-06-22T03:06:15;7.78;;;6.35;;
68714;SDS011;55692;53.356;10.030;2023-06-22T03:08:41;10.55;;;7.28;;
68714;SDS011;55692;53.356;10.030;2023-06-22T03:11:07;8.18;;;6.20;;
68714;SDS011;55692;53.356;10.030;2023-06-22T03:13:33;8.05;;;6.35;;
68714;SDS011;55692;53.356;10.030;2023-06-22T03:15:59;10.05;;;5.90;;
68714;SDS011;55692;53.356;10.030;2023-06-22T03:18:25;7.93;;;6.13;;
68714;SDS011;55692;53.356;10.030;2023-06-22T03:20:52;7.90;;;5.50;;
68714;SDS011;55692;53.356;10.030;2023-06-22T03:23:18;7.82;;;5.75;;
68714;SDS011;55692;53.356;10.030;2023-06-22T03:25:44;7.50;;;5.32;;
68714;SDS011;55692;53.356;10.030;2023-06-22T03:28:10;5.80;;;4.65;;
68714;SDS011;55692;53.356;10.030;2023-06-22T03:30:36;10.18;;;5.18;;
68714;SDS011;55692;53.356;10.030;2023-06-22T03:33:02;5.93;;;4.78;;
68714;SDS011;55692;53.356;10.030;2023-06-22T03:35:28;8.10;;;5.10;;
68714;SDS011;55692;53.356;10.030;2023-06-22T03:37:54;6.68;;;5.88;;
68714;SDS011;55692;53.356;10.030;2023-06-22T03:40:20;7.80;;;5.78;;
68714;SDS011;55692;53.356;10.030;2023-06-22T03:42:46;8.95;;;5.50;;
68714;SDS011;55692;53.356;10.030;2023-06-22T03:45:12;7.03;;;4.80;;
68714;SDS011;55692;53.356;10.030;2023-06-22T03:47:38;6.90;;;5.18;;
68714;SDS011;55692;53.356;10.030;2023-06-22T03:50:05;6.78;;;5.18;;
68714;SDS011;55692;53.356;10.030;2023-06-22T03:52:31;5.60;;;5.00;;
68714;SDS011;55692;53.356;10.030;2023-06-22T03:54:57;5.18;;;4.45;;
68714;SDS011;55692;53.356;10.030;2023-06-22T03:57:23;7.78;;;5.72;;
68714;SDS011;55692;53.356;10.030;2023-06-22T03:59:49;9.13;;;5.30;;
68714;SDS011;55692;53.356;10.030;2023-06-22T04:02:15;8.07;;;6.13;;
68714;SDS011;55692;53.356;10.030;2023-06-22T04:04:41;9.38;;;6.22;;
68714;SDS011;55692;53.356;10.030;2023-06-22T04:07:07;6.15;;;5.38;;
68714;SDS011;55692;53.356;10.030;2023-06-22T04:09:33;10.50;;;5.90;;
68714;SDS011;55692;53.356;10.030;2023-06-22T04:12:00;6.00;;;5.40;;
68714;SDS011;55692;53.356;10.030;2023-06-22T04:14:26;6.10;;;5.00;;
68714;SDS011;55692;53.356;10.030;2023-06-22T04:16:52;8.82;;;5.00;;
68714;SDS011;55692;53.356;10.030;2023-06-22T04:19:18;8.27;;;5.70;;
68714;SDS011;55692;53.356;10.030;2023-06-22T04:21:44;7.38;;;5.57;;
68714;SDS011;55692;53.356;10.030;2023-06-22T04:24:13;8.40;;;6.18;;
68714;SDS011;55692;53.356;10.030;2023-06-22T04:26:39;9.57;;;5.75;;
68714;SDS011;55692;53.356;10.030;2023-06-22T04:29:07;6.80;;;5.68;;
68714;SDS011;55692;53.356;10.030;2023-06-22T04:31:36;9.23;;;5.47;;
68714;SDS011;55692;53.356;10.030;2023-06-22T04:34:03;6.90;;;5.22;;
68714;SDS011;55692;53.356;10.030;2023-06-22T04:36:35;8.48;;;5.40;;
68714;SDS011;55692;53.356;10.030;2023-06-22T04:39:06;7.95;;;5.35;;
68714;SDS011;55692;53.356;10.030;2023-06-22T04:41:38;19.65;;;4.95;;
68714;SDS011;55692;53.356;10.030;2023-06-22T04:46:36;7.18;;;5.63;;
68714;SDS011;55692;53.356;10.030;2023-06-22T04:49:04;7.55;;;5.75;;
68714;SDS011;55692;53.356;10.030;2023-06-22T04:51:31;10.65;;;6.45;;
68714;SDS011;55692;53.356;10.030;2023-06-22T04:53:58;7.25;;;5.78;;
68714;SDS011;55692;53.356;10.030;2023-06-22T04:56:26;8.35;;;5.75;;
68714;SDS011;55692;53.356;10.030;2023-06-22T04:58:54;10.10;;;5.47;;
68714;SDS011;55692;53.356;10.030;2023-06-22T05:01:22;7.07;;;5.90;;
68714;SDS011;55692;53.356;10.030;2023-06-22T05:03:48;8.68;;;5.90;;
68714;SDS011;55692;53.356;10.030;2023-06-22T05:06:15;7.78;;;5.15;;
68714;SDS011;55692;53.356;10.030;2023-06-22T05:08:41;8.98;;;5.07;;
68714;SDS011;55692;53.356;10.030;2023-06-22T05:11:07;7.53;;;5.40;;
68714;SDS011;55692;53.356;10.030;2023-06-22T05:13:33;7.45;;;5.10;;
68714;SDS011;55692;53.356;10.030;2023-06-22T05:15:59;6.45;;;5.00;;
68714;SDS011;55692;53.356;10.030;2023-06-22T05:18:28;6.80;;;5.00;;
68714;SDS011;55692;53.356;10.030;2023-06-22T05:20:54;5.88;;;4.65;;
68714;SDS011;55692;53.356;10.030;2023-06-22T05:23:20;6.45;;;5.25;;
68714;SDS011;55692;53.356;10.030;2023-06-22T05:25:46;6.28;;;4.93;;
68714;SDS011;55692;53.356;10.030;2023-06-22T05:28:12;7.30;;;4.85;;
68714;SDS011;55692;53.356;10.030;2023-06-22T05:30:38;10.05;;;5.10;;
68714;SDS011;55692;53.356;10.030;2023-06-22T05:33:05;8.52;;;5.10;;
68714;SDS011;55692;53.356;10.030;2023-06-22T05:35:31;7.78;;;4.78;;
68714;SDS011;55692;53.356;10.030;2023-06-22T05:37:57;10.15;;;6.03;;
68714;SDS011;55692;53.356;10.030;2023-06-22T05:40:23;6.25;;;4.88;;
68714;SDS011;55692;53.356;10.030;2023-06-22T05:42:49;5.60;;;4.82;;
68714;SDS011;55692;53.356;10.030;2023-06-22T05:45:15;6.55;;;5.53;;
68714;SDS011;55692;53.356;10.030;2023-06-22T05:47:41;13.68;;;6.13;;
68714;SDS011;55692;53.356;10.030;2023-06-22T05:50:07;6.72;;;4.68;;
68714;SDS011;55692;53.356;10.030;2023-06-22T05:52:33;7.15;;;4.97;;
68714;SDS011;55692;53.356;10.030;2023-06-22T05:55:00;7.15;;;5.22;;
68714;SDS011;55692;53.356;10.030;2023-06-22T05:57:26;6.97;;;5.28;;
68714;SDS011;55692;53.356;10.030;2023-06-22T05:59:52;8.70;;;5.63;;
68714;SDS011;55692;53.356;10.030;2023-06-22T06:02:18;8.60;;;5.25;;
68714;SDS011;55692;53.356;10.030;2023-06-22T06:04:44;7.53;;;4.10;;
68714;SDS011;55692;53.356;10.030;2023-06-22T06:07:11;7.65;;;4.50;;
68714;SDS011;55692;53.356;10.030;2023-06-22T06:09:37;7.82;;;4.28;;
68714;SDS011;55692;53.356;10.030;2023-06-22T06:12:03;10.05;;;4.70;;
68714;SDS011;55692;53.356;10.030;2023-06-22T06:14:29;6.43;;;4.40;;
68714;SDS011;55692;53.356;10.030;2023-06-22T06:16:55;7.43;;;3.85;;
68714;SDS011;55692;53.356;10.030;2023-06-22T06:19:21;4.53;;;3.40;;
68714;SDS011;55692;53.356;10.030;2023-06-22T06:21:47;5.30;;;4.03;;
68714;SDS011;55692;53.356;10.030;2023-06-22T06:24:13;7.97;;;3.50;;
68714;SDS011;55692;53.356;10.030;2023-06-22T06:26:39;4.38;;;3.35;;
68714;SDS011;55692;53.356;10.030;2023-06-22T06:29:05;5.07;;;3.30;;
68714;SDS011;55692;53.356;10.030;2023-06-22T06:31:31;6.22;;;3.35;;
68714;SDS011;55692;53.356;10.030;2023-06-22T06:33:58;4.93;;;3.50;;
68714;SDS011;55692;53.356;10.030;2023-06-22T06:36:24;6.78;;;3.63;;
68714;SDS011;55692;53.356;10.030;2023-06-22T06:38:50;5.22;;;3.10;;
68714;SDS011;55692;53.356;10.030;2023-06-22T06:41:16;7.93;;;3.30;;
68714;SDS011;55692;53.356;10.030;2023-06-22T06:43:42;5.65;;;3.10;;
68714;SDS011;55692;53.356;10.030;2023-06-22T06:46:08;10.65;;;3.80;;
68714;SDS011;55692;53.356;10.030;2023-06-22T06:48:35;8.82;;;3.72;;
68714;SDS011;55692;53.356;10.030;2023-06-22T06:51:01;7.22;;;3.75;;
68714;SDS011;55692;53.356;10.030;2023-06-22T06:53:27;5.10;;;3.85;;
68714;SDS011;55692;53.356;10.030;2023-06-22T06:55:53;5.15;;;3.10;;
68714;SDS011;55692;53.356;10.030;2023-06-22T06:58:19;5.93;;;3.67;;
68714;SDS011;55692;53.356;10.030;2023-06-22T07:00:45;5.30;;;3.25;;
68714;SDS011;55692;53.356;10.030;2023-06-22T07:03:12;4.18;;;3.00;;
68714;SDS011;55692;53.356;10.030;2023-06-22T07:05:38;6.20;;;2.88;;
68714;SDS011;55692;53.356;10.030;2023-06-22T07:08:04;5.80;;;3.30;;
68714;SDS011;55692;53.356;10.030;2023-06-22T07:10:30;5.57;;;3.35;;
68714;SDS011;55692;53.356;10.030;2023-06-22T07:12:56;6.28;;;3.38;;
68714;SDS011;55692;53.356;10.030;2023-06-22T07:15:22;6.20;;;3.28;;
68714;SDS011;55692;53.356;10.030;2023-06-22T07:17:48;5.93;;;3.00;;
68714;SDS011;55692;53.356;10.030;2023-06-22T07:20:14;5.10;;;3.15;;
68714;SDS011;55692;53.356;10.030;2023-06-22T07:22:41;5.70;;;2.95;;
68714;SDS011;55692;53.356;10.030;2023-06-22T07:25:07;4.47;;;2.67;;
68714;SDS011;55692;53.356;10.030;2023-06-22T07:27:35;5.10;;;2.75;;
68714;SDS011;55692;53.356;10.030;2023-06-22T07:30:03;2.97;;;2.67;;
68714;SDS011;55692;53.356;10.030;2023-06-22T07:32:29;5.88;;;2.97;;
68714;SDS011;55692;53.356;10.030;2023-06-22T07:34:55;4.63;;;2.78;;
68714;SDS011;55692;53.356;10.030;2023-06-22T07:37:21;8.73;;;3.22;;
68714;SDS011;55692;53.356;10.030;2023-06-22T07:39:47;5.10;;;3.05;;
68714;SDS011;55692;53.356;10.030;2023-06-22T07:42:15;4.53;;;2.88;;
68714;SDS011;55692;53.356;10.030;2023-06-22T07:44:43;7.22;;;3.25;;
68714;SDS011;55692;53.356;10.030;2023-06-22T07:47:09;5.18;;;3.30;;
68714;SDS011;55692;53.356;10.030;2023-06-22T07:49:35;5.82;;;3.05;;
68714;SDS011;55692;53.356;10.030;2023-06-22T07:52:01;5.10;;;2.90;;
68714;SDS011;55692;53.356;10.030;2023-06-22T07:54:27;6.68;;;2.80;;
68714;SDS011;55692;53.356;10.030;2023-06-22T07:56:53;5.05;;;2.92;;
68714;SDS011;55692;53.356;10.030;2023-06-22T07:59:19;6.65;;;2.97;;
68714;SDS011;55692;53.356;10.030;2023-06-22T08:01:45;5.15;;;3.42;;
68714;SDS011;55692;53.356;10.030;2023-06-22T08:04:14;6.95;;;3.58;;
68714;SDS011;55692;53.356;10.030;2023-06-22T08:06:40;4.65;;;3.22;;
68714;SDS011;55692;53.356;10.030;2023-06-22T08:09:06;3.72;;;2.75;;
68714;SDS011;55692;53.356;10.030;2023-06-22T08:11:32;6.22;;;3.42;;
68714;SDS011;55692;53.356;10.030;2023-06-22T08:13:58;7.53;;;3.40;;
68714;SDS011;55692;53.356;10.030;2023-06-22T08:16:24;8.57;;;3.78;;
68714;SDS011;55692;53.356;10.030;2023-06-22T08:18:51;7.50;;;3.63;;
68714;SDS011;55692;53.356;10.030;2023-06-22T08:21:16;7.53;;;2.85;;
68714;SDS011;55692;53.356;10.030;2023-06-22T08:23:42;7.75;;;3.47;;
68714;SDS011;55692;53.356;10.030;2023-06-22T08:26:08;7.45;;;3.10;;
68714;SDS011;55692;53.356;10.030;2023-06-22T08:28:34;8.48;;;2.95;;
68714;SDS011;55692;53.356;10.030;2023-06-22T08:31:01;4.30;;;3.10;;
68714;SDS011;55692;53.356;10.030;2023-06-22T08:33:28;6.90;;;3.53;;
68714;SDS011;55692;53.356;10.030;2023-06-22T08:35:55;7.55;;;3.53;;
68714;SDS011;55692;53.356;10.030;2023-06-22T08:38:21;4.97;;;3.22;;
68714;SDS011;55692;53.356;10.030;2023-06-22T08:40:47;6.75;;;3.67;;
68714;SDS011;55692;53.356;10.030;2023-06-22T08:43:13;7.63;;;3.28;;
68714;SDS011;55692;53.356;10.030;2023-06-22T08:45:39;7.25;;;3.50;;
68714;SDS011;55692;53.356;10.030;2023-06-22T08:48:05;5.45;;;2.90;;
68714;SDS011;55692;53.356;10.030;2023-06-22T08:50:31;4.65;;;3.33;;
68714;SDS011;55692;53.356;10.030;2023-06-22T08:52:57;6.82;;;3.30;;
68714;SDS011;55692;53.356;10.030;2023-06-22T08:55:23;8.13;;;3.58;;
68714;SDS011;55692;53.356;10.030;2023-06-22T08:57:49;5.50;;;3.40;;
68714;SDS011;55692;53.356;10.030;2023-06-22T09:00:16;5.90;;;3.30;;
68714;SDS011;55692;53.356;10.030;2023-06-22T09:02:44;6.28;;;3.35;;
68714;SDS011;55692;53.356;10.030;2023-06-22T09:05:10;7.22;;;3.38;;
68714;SDS011;55692;53.356;10.030;2023-06-22T09:07:36;9.25;;;3.47;;
68714;SDS011;55692;53.356;10.030;2023-06-22T09:10:03;4.88;;;3.40;;
68714;SDS011;55692;53.356;10.030;2023-06-22T09:12:32;7.65;;;3.35;;
68714;SDS011;55692;53.356;10.030;2023-06-22T09:14:58;9.23;;;2.83;;
68714;SDS011;55692;53.356;10.030;2023-06-22T09:17:28;3.47;;;2.78;;
68714;SDS011;55692;53.356;10.030;2023-06-22T09:19:54;3.30;;;2.53;;
68714;SDS011;55692;53.356;10.030;2023-06-22T09:22:20;7.30;;;3.00;;
68714;SDS011;55692;53.356;10.030;2023-06-22T09:24:46;4.82;;;2.97;;
68714;SDS011;55692;53.356;10.030;2023-06-22T09:27:12;5.88;;;3.25;;
68714;SDS011;55692;53.356;10.030;2023-06-22T09:29:38;6.25;;;2.88;;
68714;SDS011;55692;53.356;10.030;2023-06-22T09:32:04;5.35;;;2.80;;
68714;SDS011;55692;53.356;10.030;2023-06-22T09:34:30;5.50;;;3.25;;
68714;SDS011;55692;53.356;10.030;2023-06-22T09:36:57;3.88;;;2.47;;
68714;SDS011;55692;53.356;10.030;2023-06-22T09:39:25;11.98;;;4.32;;
68714;SDS011;55692;53.356;10.030;2023-06-22T09:41:51;5.32;;;2.78;;
68714;SDS011;55692;53.356;10.030;2023-06-22T09:44:17;5.22;;;3.67;;
68714;SDS011;55692;53.356;10.030;2023-06-22T09:46:43;4.18;;;2.63;;
68714;SDS011;55692;53.356;10.030;2023-06-22T09:49:09;5.28;;;2.95;;
68714;SDS011;55692;53.356;10.030;2023-06-22T09:51:35;4.03;;;2.80;;
68714;SDS011;55692;53.356;10.030;2023-06-22T09:54:01;4.85;;;3.60;;
68714;SDS011;55692;53.356;10.030;2023-06-22T09:56:27;5.22;;;3.00;;
68714;SDS011;55692;53.356;10.030;2023-06-22T09:58:55;6.45;;;3.42;;
68714;SDS011;55692;53.356;10.030;2023-06-22T10:01:21;5.50;;;2.92;;
68714;SDS011;55692;53.356;10.030;2023-06-22T10:03:47;4.95;;;3.42;;
68714;SDS011;55692;53.356;10.030;2023-06-22T10:06:13;7.05;;;3.08;;
68714;SDS011;55692;53.356;10.030;2023-06-22T10:08:40;4.55;;;2.72;;
68714;SDS011;55692;53.356;10.030;2023-06-22T10:11:06;4.38;;;2.65;;
68714;SDS011;55692;53.356;10.030;2023-06-22T10:13:32;4.18;;;3.10;;
68714;SDS011;55692;53.356;10.030;2023-06-22T10:15:58;4.80;;;2.78;;
68714;SDS011;55692;53.356;10.030;2023-06-22T10:18:24;5.55;;;2.80;;
68714;SDS011;55692;53.356;10.030;2023-06-22T10:20:50;4.07;;;3.13;;
68714;SDS011;55692;53.356;10.030;2023-06-22T10:23:17;4.28;;;3.08;;
68714;SDS011;55692;53.356;10.030;2023-06-22T10:25:42;3.72;;;2.63;;
68714;SDS011;55692;53.356;10.030;2023-06-22T10:28:08;4.45;;;3.28;;
68714;SDS011;55692;53.356;10.030;2023-06-22T10:30:34;5.10;;;2.78;;
68714;SDS011;55692;53.356;10.030;2023-06-22T10:33:00;7.50;;;2.70;;
68714;SDS011;55692;53.356;10.030;2023-06-22T10:35:26;4.05;;;2.78;;
68714;SDS011;55692;53.356;10.030;2023-06-22T10:37:52;3.60;;;2.70;;
68714;SDS011;55692;53.356;10.030;2023-06-22T10:40:19;4.90;;;3.35;;
68714;SDS011;55692;53.356;10.030;2023-06-22T10:42:45;5.55;;;3.75;;
68714;SDS011;55692;53.356;10.030;2023-06-22T10:45:11;8.50;;;3.97;;
68714;SDS011;55692;53.356;10.030;2023-06-22T10:47:38;4.63;;;3.05;;
68714;SDS011;55692;53.356;10.030;2023-06-22T10:50:07;6.75;;;3.00;;
68714;SDS011;55692;53.356;10.030;2023-06-22T10:52:33;5.97;;;3.47;;
68714;SDS011;55692;53.356;10.030;2023-06-22T10:54:59;5.97;;;3.45;;
68714;SDS011;55692;53.356;10.030;2023-06-22T10:57:25;5.10;;;3.20;;
68714;SDS011;55692;53.356;10.030;2023-06-22T10:59:51;8.65;;;3.42;;
68714;SDS011;55692;53.356;10.030;2023-06-22T11:02:17;6.75;;;3.55;;
68714;SDS011;55692;53.356;10.030;2023-06-22T11:04:43;4.03;;;3.00;;
68714;SDS011;55692;53.356;10.030;2023-06-22T11:07:11;5.47;;;3.20;;
68714;SDS011;55692;53.356;10.030;2023-06-22T11:09:37;5.25;;;3.50;;
68714;SDS011;55692;53.356;10.030;2023-06-22T11:12:04;4.32;;;3.53;;
68714;SDS011;55692;53.356;10.030;2023-06-22T11:14:30;6.88;;;3.40;;
68714;SDS011;55692;53.356;10.030;2023-06-22T11:16:58;3.78;;;2.97;;
68714;SDS011;55692;53.356;10.030;2023-06-22T11:19:24;6.80;;;3.10;;
68714;SDS011;55692;53.356;10.030;2023-06-22T11:21:50;5.57;;;3.30;;
68714;SDS011;55692;53.356;10.030;2023-06-22T11:24:16;8.60;;;4.95;;
68714;SDS011;55692;53.356;10.030;2023-06-22T11:26:43;6.90;;;4.25;;
68714;SDS011;55692;53.356;10.030;2023-06-22T11:29:09;5.68;;;3.65;;
68714;SDS011;55692;53.356;10.030;2023-06-22T11:31:35;4.85;;;3.17;;
68714;SDS011;55692;53.356;10.030;2023-06-22T11:34:01;5.95;;;3.22;;
68714;SDS011;55692;53.356;10.030;2023-06-22T11:36:27;7.07;;;3.78;;
68714;SDS011;55692;53.356;10.030;2023-06-22T11:38:54;5.55;;;3.35;;
68714;SDS011;55692;53.356;10.030;2023-06-22T11:41:20;4.50;;;3.08;;
68714;SDS011;55692;53.356;10.030;2023-06-22T11:43:46;4.55;;;3.10;;
68714;SDS011;55692;53.356;10.030;2023-06-22T11:46:12;4.55;;;3.40;;
68714;SDS011;55692;53.356;10.030;2023-06-22T11:48:38;4.32;;;3.15;;
68714;SDS011;55692;53.356;10.030;2023-06-22T11:51:04;5.32;;;3.25;;
68714;SDS011;55692;53.356;10.030;2023-06-22T11:53:31;4.57;;;3.35;;
68714;SDS011;55692;53.356;10.030;2023-06-22T11:55:57;6.13;;;3.33;;
68714;SDS011;55692;53.356;10.030;2023-06-22T11:58:24;5.47;;;3.70;;
68714;SDS011;55692;53.356;10.030;2023-06-22T12:00:50;5.63;;;3.33;;
68714;SDS011;55692;53.356;10.030;2023-06-22T12:03:17;6.30;;;3.92;;
68714;SDS011;55692;53.356;10.030;2023-06-22T12:05:43;4.35;;;3.40;;
68714;SDS011;55692;53.356;10.030;2023-06-22T12:08:09;6.13;;;3.83;;
68714;SDS011;55692;53.356;10.030;2023-06-22T12:10:35;5.95;;;3.65;;
68714;SDS011;55692;53.356;10.030;2023-06-22T12:13:01;7.72;;;3.70;;
68714;SDS011;55692;53.356;10.030;2023-06-22T12:15:27;4.85;;;3.42;;
68714;SDS011;55692;53.356;10.030;2023-06-22T12:17:53;6.20;;;3.30;;
68714;SDS011;55692;53.356;10.030;2023-06-22T12:20:19;6.45;;;3.63;;
68714;SDS011;55692;53.356;10.030;2023-06-22T12:22:45;5.82;;;3.60;;
68714;SDS011;55692;53.356;10.030;2023-06-22T12:25:12;5.80;;;4.47;;
68714;SDS011;55692;53.356;10.030;2023-06-22T12:27:38;5.45;;;3.70;;
68714;SDS011;55692;53.356;10.030;2023-06-22T12:30:04;4.25;;;3.70;;
68714;SDS011;55692;53.356;10.030;2023-06-22T12:32:30;4.93;;;3.60;;
68714;SDS011;55692;53.356;10.030;2023-06-22T12:34:56;5.80;;;4.38;;
68714;SDS011;55692;53.356;10.030;2023-06-22T12:37:23;5.35;;;3.85;;
68714;SDS011;55692;53.356;10.030;2023-06-22T12:39:49;6.63;;;4.75;;
68714;SDS011;55692;53.356;10.030;2023-06-22T12:42:15;7.47;;;4.93;;
68714;SDS011;55692;53.356;10.030;2023-06-22T12:44:41;6.57;;;4.22;;
68714;SDS011;55692;53.356;10.030;2023-06-22T12:47:08;4.82;;;3.70;;
68714;SDS011;55692;53.356;10.030;2023-06-22T12:49:35;5.22;;;4.20;;
68714;SDS011;55692;53.356;10.030;2023-06-22T12:52:01;6.57;;;4.00;;
68714;SDS011;55692;53.356;10.030;2023-06-22T12:54:27;5.35;;;3.83;;
68714;SDS011;55692;53.356;10.030;2023-06-22T12:56:56;5.22;;;4.07;;
68714;SDS011;55692;53.356;10.030;2023-06-22T12:59:22;7.63;;;4.00;;
68714;SDS011;55692;53.356;10.030;2023-06-22T13:01:48;5.85;;;3.80;;
68714;SDS011;55692;53.356;10.030;2023-06-22T13:04:14;6.35;;;4.28;;
68714;SDS011;55692;53.356;10.030;2023-06-22T13:06:43;7.18;;;5.15;;
68714;SDS011;55692;53.356;10.030;2023-06-22T13:09:12;5.93;;;4.05;;
68714;SDS011;55692;53.356;10.030;2023-06-22T13:11:38;7.70;;;3.88;;
68714;SDS011;55692;53.356;10.030;2023-06-22T13:14:04;5.78;;;3.80;;
68714;SDS011;55692;53.356;10.030;2023-06-22T13:16:30;5.22;;;4.03;;
68714;SDS011;55692;53.356;10.030;2023-06-22T13:18:56;5.78;;;4.05;;
68714;SDS011;55692;53.356;10.030;2023-06-22T13:21:22;6.95;;;3.88;;
68714;SDS011;55692;53.356;10.030;2023-06-22T13:23:48;5.28;;;4.22;;
68714;SDS011;55692;53.356;10.030;2023-06-22T13:26:14;5.82;;;4.32;;
68714;SDS011;55692;53.356;10.030;2023-06-22T13:28:40;5.55;;;3.83;;
68714;SDS011;55692;53.356;10.030;2023-06-22T13:31:06;4.43;;;4.03;;
68714;SDS011;55692;53.356;10.030;2023-06-22T13:33:32;7.38;;;4.30;;
68714;SDS011;55692;53.356;10.030;2023-06-22T13:35:58;5.15;;;3.90;;
68714;SDS011;55692;53.356;10.030;2023-06-22T13:38:24;7.68;;;4.10;;
68714;SDS011;55692;53.356;10.030;2023-06-22T13:40:50;7.43;;;4.43;;
68714;SDS011;55692;53.356;10.030;2023-06-22T13:43:16;6.15;;;4.15;;
68714;SDS011;55692;53.356;10.030;2023-06-22T13:45:43;8.75;;;4.15;;
68714;SDS011;55692;53.356;10.030;2023-06-22T13:48:09;5.00;;;3.90;;
68714;SDS011;55692;53.356;10.030;2023-06-22T13:50:35;6.20;;;4.35;;
68714;SDS011;55692;53.356;10.030;2023-06-22T13:53:01;6.07;;;4.38;;
68714;SDS011;55692;53.356;10.030;2023-06-22T13:55:27;6.90;;;3.97;;
68714;SDS011;55692;53.356;10.030;2023-06-22T13:57:53;8.43;;;4.43;;
68714;SDS011;55692;53.356;10.030;2023-06-22T14:00:19;7.07;;;4.88;;
68714;SDS011;55692;53.356;10.030;2023-06-22T14:02:45;5.32;;;4.43;;
68714;SDS011;55692;53.356;10.030;2023-06-22T14:05:11;7.95;;;4.80;;
68714;SDS011;55692;53.356;10.030;2023-06-22T14:07:38;6.72;;;4.75;;
68714;SDS011;55692;53.356;10.030;2023-06-22T14:10:04;5.70;;;4.13;;
68714;SDS011;55692;53.356;10.030;2023-06-22T14:12:30;8.93;;;4.93;;
68714;SDS011;55692;53.356;10.030;2023-06-22T14:14:56;9.05;;;5.28;;
68714;SDS011;55692;53.356;10.030;2023-06-22T14:17:22;8.00;;;4.60;;
68714;SDS011;55692;53.356;10.030;2023-06-22T14:19:50;8.25;;;4.82;;
68714;SDS011;55692;53.356;10.030;2023-06-22T14:22:18;5.82;;;4.25;;
68714;SDS011;55692;53.356;10.030;2023-06-22T14:24:44;7.65;;;4.55;;
68714;SDS011;55692;53.356;10.030;2023-06-22T14:27:10;6.85;;;4.65;;
68714;SDS011;55692;53.356;10.030;2023-06-22T14:29:36;11.80;;;5.05;;
68714;SDS011;55692;53.356;10.030;2023-06-22T14:32:02;5.95;;;4.40;;
68714;SDS011;55692;53.356;10.030;2023-06-22T14:34:29;5.75;;;4.38;;
68714;SDS011;55692;53.356;10.030;2023-06-22T14:36:55;5.68;;;4.00;;
68714;SDS011;55692;53.356;10.030;2023-06-22T14:39:21;5.88;;;4.22;;